Time;durP1;ratioP1;P1;durP2;ratioP2;P2;SDS_P1;SDS_P2;PMS_P1;PMS_P2;Temp;Humidity;BMP_temperature;BMP_pressure;BME280_temperature;BME280_humidity;BME280_pressure;Samples;Min_cycle;Max_cycle;Signal;HPM_P1;HPM_P2
2021/10/18 00:00:01;;;;;;;7.78;5.33;;;;;;;22.64;53.60;101360.14;1735768;80;21114;-54
2021/10/18 00:02:27;;;;;;;7.95;4.30;;;;;;;22.64;53.62;101357.36;1707595;82;21485;-54
2021/10/18 00:04:53;;;;;;;8.60;4.35;;;;;;;22.63;53.63;101361.27;1689827;82;20935;-54
2021/10/18 00:07:21;;;;;;;6.45;4.03;;;;;;;22.64;53.63;101356.54;1712322;81;21272;-53
2021/10/18 00:09:47;;;;;;;6.97;4.30;;;;;;;22.62;53.64;101355.46;1712276;81;21131;-54
2021/10/18 00:12:13;;;;;;;7.03;3.92;;;;;;;22.62;53.65;101354.64;1714424;82;21201;-54
2021/10/18 00:14:39;;;;;;;5.90;3.70;;;;;;;22.62;53.64;101359.63;1721139;82;21197;-53
2021/10/18 00:17:05;;;;;;;6.90;3.80;;;;;;;22.62;53.67;101354.08;1753747;80;21953;-54
2021/10/18 00:19:31;;;;;;;7.03;3.80;;;;;;;22.61;53.69;101353.84;1719615;81;21004;-54
2021/10/18 00:21:57;;;;;;;6.67;3.98;;;;;;;22.61;53.69;101347.48;1708430;82;21145;-54
2021/10/18 00:24:24;;;;;;;6.85;4.15;;;;;;;22.60;53.69;101345.84;1718487;81;21008;-55
2021/10/18 00:26:50;;;;;;;6.87;3.85;;;;;;;22.59;53.72;101346.41;1704450;82;22272;-56
2021/10/18 00:29:16;;;;;;;6.97;4.22;;;;;;;22.59;53.71;101346.41;1723810;81;20895;-56
2021/10/18 00:31:42;;;;;;;6.47;3.70;;;;;;;22.59;53.72;101345.58;1739378;80;21281;-56
2021/10/18 00:34:08;;;;;;;7.42;4.28;;;;;;;22.58;53.72;101344.76;1733323;80;20879;-55
2021/10/18 00:36:34;;;;;;;6.55;4.28;;;;;;;22.58;53.71;101344.76;1742996;80;20988;-56
2021/10/18 00:39:00;;;;;;;6.03;4.03;;;;;;;22.58;53.72;101342.55;1744420;80;21210;-56
2021/10/18 00:41:27;;;;;;;6.40;4.08;;;;;;;22.57;53.73;101347.30;1715577;81;21061;-55
2021/10/18 00:43:55;;;;;;;6.90;4.22;;;;;;;22.56;53.71;101342.89;1716065;81;22191;-56
2021/10/18 00:46:22;;;;;;;5.00;3.87;;;;;;;22.56;53.72;101337.91;1744943;80;21717;-56
2021/10/18 00:48:53;;;;;;;6.00;4.03;;;;;;;22.56;53.71;101337.91;1718281;82;21052;-55
2021/10/18 00:51:21;;;;;;;7.33;4.10;;;;;;;22.55;53.72;101332.92;1742550;80;21430;-56
2021/10/18 00:53:48;;;;;;;7.33;4.78;;;;;;;22.55;53.72;101334.87;1728803;80;21526;-56
2021/10/18 00:56:14;;;;;;;5.72;4.30;;;;;;;22.54;53.73;101337.39;1705099;81;21302;-55
2021/10/18 00:58:42;;;;;;;6.22;4.20;;;;;;;22.55;53.72;101332.09;1687784;83;21185;-53
2021/10/18 01:01:08;;;;;;;6.50;4.08;;;;;;;22.54;53.73;101334.05;1707759;81;21151;-55
2021/10/18 01:03:36;;;;;;;6.65;4.35;;;;;;;22.53;53.69;101337.16;1703294;82;21087;-55
2021/10/18 01:06:02;;;;;;;7.00;4.45;;;;;;;22.52;53.72;101339.67;1710049;82;21743;-55
2021/10/18 01:08:28;;;;;;;8.98;4.58;;;;;;;22.53;53.70;101342.11;1716863;81;21194;-55
2021/10/18 01:10:54;;;;;;;7.12;4.05;;;;;;;22.52;53.70;101341.06;1737423;81;21930;-56
2021/10/18 01:13:21;;;;;;;5.20;3.90;;;;;;;22.52;53.70;101336.91;1720137;81;21103;-56
2021/10/18 01:15:47;;;;;;;6.55;4.22;;;;;;;22.51;53.70;101337.47;1718957;81;21624;-55
2021/10/18 01:18:13;;;;;;;8.30;4.37;;;;;;;22.51;53.71;101336.64;1698211;82;21209;-56
2021/10/18 01:20:40;;;;;;;7.92;4.28;;;;;;;22.51;53.70;101335.26;1722448;82;21364;-55
2021/10/18 01:23:09;;;;;;;6.37;4.58;;;;;;;22.50;53.71;101331.66;1719552;81;21546;-56
2021/10/18 01:25:37;;;;;;;6.92;4.53;;;;;;;22.50;53.70;101335.83;1711604;81;21452;-55
2021/10/18 01:28:04;;;;;;;5.97;3.95;;;;;;;22.49;53.69;101330.61;1719012;82;21062;-56
2021/10/18 01:30:30;;;;;;;6.12;4.62;;;;;;;22.49;53.69;101331.41;1723212;81;21079;-55
2021/10/18 01:32:56;;;;;;;7.60;4.60;;;;;;;22.50;53.70;101333.61;1721594;81;21252;-55
2021/10/18 01:35:23;;;;;;;6.58;4.22;;;;;;;22.49;53.71;101329.23;1730186;81;21102;-55
2021/10/18 01:37:51;;;;;;;6.33;4.87;;;;;;;22.49;53.71;101336.16;1719320;81;21146;-56
2021/10/18 01:40:21;;;;;;;6.45;4.80;;;;;;;22.49;53.71;101334.18;1713154;81;21079;-56
2021/10/18 01:42:48;;;;;;;7.10;4.35;;;;;;;22.48;53.71;101331.18;1716045;81;21774;-56
2021/10/18 01:45:15;;;;;;;6.35;4.50;;;;;;;22.47;53.71;101329.53;1724536;81;21564;-56
2021/10/18 01:47:41;;;;;;;6.10;4.53;;;;;;;22.47;53.71;101330.92;1726714;81;21138;-56
2021/10/18 01:50:12;;;;;;;7.10;4.67;;;;;;;22.46;53.72;101326.51;1724024;81;21110;-56
2021/10/18 01:52:39;;;;;;;7.28;4.78;;;;;;;22.46;53.72;101327.07;1729265;81;21083;-56
2021/10/18 01:55:06;;;;;;;7.85;4.75;;;;;;;22.45;53.72;101323.47;1726380;81;21580;-56
2021/10/18 01:57:32;;;;;;;7.83;5.03;;;;;;;22.46;53.73;101328.45;1720588;81;21144;-55
2021/10/18 01:59:59;;;;;;;6.20;4.55;;;;;;;22.45;53.71;101328.23;1722936;81;21102;-56
2021/10/18 02:02:25;;;;;;;7.58;4.83;;;;;;;22.44;53.71;101327.41;1715891;82;20892;-55
2021/10/18 02:04:51;;;;;;;5.65;4.72;;;;;;;22.44;53.73;101324.64;1717859;81;21086;-56
2021/10/18 02:07:17;;;;;;;6.15;4.60;;;;;;;22.45;53.71;101324.07;1711478;82;21084;-56
2021/10/18 02:09:43;;;;;;;6.90;4.83;;;;;;;22.45;53.71;101326.84;1725323;81;21734;-52
2021/10/18 02:12:09;;;;;;;7.97;4.80;;;;;;;22.44;53.71;101327.41;1715138;81;20925;-56
2021/10/18 02:14:35;;;;;;;7.45;4.97;;;;;;;22.44;53.71;101327.97;1727312;81;21579;-56
2021/10/18 02:17:01;;;;;;;7.08;5.12;;;;;;;22.43;53.71;101320.22;1722881;81;21125;-55
2021/10/18 02:19:27;;;;;;;6.15;4.67;;;;;;;22.43;53.72;101320.78;1723755;81;21157;-54
2021/10/18 02:21:53;;;;;;;5.17;4.15;;;;;;;22.43;53.71;101326.33;1710704;81;21278;-56
2021/10/18 02:24:19;;;;;;;6.72;4.90;;;;;;;22.42;53.74;101329.66;1719022;82;20909;-55
2021/10/18 02:26:45;;;;;;;7.83;4.78;;;;;;;22.42;53.74;101324.69;1723235;81;21130;-55
2021/10/18 02:29:11;;;;;;;6.53;4.50;;;;;;;22.42;53.74;101328.28;1722096;81;21754;-56
2021/10/18 02:31:38;;;;;;;6.78;4.60;;;;;;;22.41;53.75;101325.25;1719939;82;21057;-56
2021/10/18 02:34:04;;;;;;;7.15;4.90;;;;;;;22.41;53.72;101325.25;1722687;81;21141;-56
2021/10/18 02:36:30;;;;;;;6.60;4.40;;;;;;;22.41;53.75;101325.25;1724422;81;22604;-51
2021/10/18 02:38:57;;;;;;;5.35;4.00;;;;;;;22.41;53.72;101326.63;1724841;82;21035;-54
2021/10/18 02:41:23;;;;;;;6.03;4.87;;;;;;;22.40;53.73;101327.80;1717286;81;21066;-55
2021/10/18 02:43:49;;;;;;;5.50;4.45;;;;;;;22.40;53.75;101335.28;1717879;81;21099;-55
2021/10/18 02:46:15;;;;;;;6.95;4.95;;;;;;;22.39;53.73;101331.70;1716172;82;21936;-55
2021/10/18 02:48:41;;;;;;;6.80;3.98;;;;;;;22.39;53.72;101335.85;1710943;82;21147;-53
2021/10/18 02:51:08;;;;;;;6.35;4.20;;;;;;;22.39;53.73;101335.85;1716266;81;21609;-55
2021/10/18 02:53:34;;;;;;;5.92;4.47;;;;;;;22.39;53.73;101333.08;1720386;81;21089;-56
2021/10/18 02:56:00;;;;;;;6.28;4.05;;;;;;;22.39;53.74;101336.41;1720176;81;20901;-55
2021/10/18 02:58:26;;;;;;;5.65;4.47;;;;;;;22.39;53.72;101333.64;1724849;81;21565;-56
2021/10/18 03:00:52;;;;;;;5.60;4.25;;;;;;;22.38;53.72;101331.44;1720989;81;21454;-56
2021/10/18 03:03:18;;;;;;;6.85;4.95;;;;;;;22.38;53.70;101330.05;1722312;81;21003;-56
2021/10/18 03:05:44;;;;;;;6.95;4.40;;;;;;;22.37;53.69;101324.81;1723017;82;20866;-56
2021/10/18 03:08:10;;;;;;;4.50;3.55;;;;;;;22.38;53.71;101328.66;1710187;81;21023;-56
2021/10/18 03:10:40;;;;;;;4.40;3.40;;;;;;;22.39;53.68;101329.48;1724566;81;21129;-54
2021/10/18 03:13:04;;;;;;;6.03;4.65;;;;;;;22.40;53.67;101328.36;1721981;81;21088;-56
2021/10/18 03:15:30;;;;;;;6.70;4.62;;;;;;;22.42;53.67;101328.28;1726093;81;22048;-56
2021/10/18 03:17:56;;;;;;;5.08;3.83;;;;;;;22.43;53.63;101329.09;1717211;81;20936;-55
2021/10/18 03:20:22;;;;;;;4.92;3.67;;;;;;;22.44;53.62;101324.64;1730728;81;21656;-55
2021/10/18 03:22:48;;;;;;;4.85;3.77;;;;;;;22.46;53.60;101330.66;1709126;81;21274;-56
2021/10/18 03:25:14;;;;;;;5.00;3.45;;;;;;;22.48;53.56;101328.97;1717852;81;21630;-55
2021/10/18 03:27:40;;;;;;;5.00;3.47;;;;;;;22.51;53.56;101333.88;1719457;81;21086;-56
2021/10/18 03:30:08;;;;;;;4.03;3.50;;;;;;;22.51;53.52;101335.26;1728789;81;21054;-55
2021/10/18 03:32:34;;;;;;;5.25;3.80;;;;;;;22.53;53.53;101333.80;1731256;81;21411;-56
2021/10/18 03:35:00;;;;;;;5.25;4.03;;;;;;;22.54;53.49;101336.83;1728767;82;21136;-56
2021/10/18 03:37:26;;;;;;;4.62;3.45;;;;;;;22.56;53.50;101335.95;1728840;81;21135;-56
2021/10/18 03:39:52;;;;;;;4.42;3.60;;;;;;;22.57;53.48;101344.53;1719706;81;21075;-56
2021/10/18 03:42:18;;;;;;;4.35;3.58;;;;;;;22.58;53.47;101339.21;1719502;82;20905;-55
2021/10/18 03:44:44;;;;;;;5.17;3.72;;;;;;;22.61;53.45;101346.09;1723629;81;21495;-55
2021/10/18 03:47:10;;;;;;;4.75;3.50;;;;;;;22.62;53.47;101342.98;1721730;81;21323;-55
2021/10/18 03:49:36;;;;;;;4.45;3.08;;;;;;;22.65;53.46;101347.09;1711313;82;21041;-56
2021/10/18 03:52:04;;;;;;;4.08;3.25;;;;;;;22.67;53.47;101347.58;1722715;81;20930;-56
2021/10/18 03:54:30;;;;;;;3.67;3.20;;;;;;;22.67;53.44;101344.23;1725075;81;21025;-55
2021/10/18 03:56:56;;;;;;;5.62;3.45;;;;;;;22.71;53.49;101352.20;1722714;81;21810;-56
2021/10/18 03:59:22;;;;;;;4.35;3.37;;;;;;;22.73;53.47;101343.57;1727047;81;22087;-55
2021/10/18 04:01:48;;;;;;;4.25;2.92;;;;;;;22.75;53.45;101349.60;1706855;82;21274;-56
2021/10/18 04:04:14;;;;;;;3.92;2.75;;;;;;;22.75;53.47;101347.66;1723835;81;21112;-55
2021/10/18 04:06:40;;;;;;;4.17;3.00;;;;;;;22.79;53.47;101353.97;1717356;81;21150;-53
2021/10/18 04:09:06;;;;;;;5.40;3.00;;;;;;;22.80;53.48;101352.81;1729469;81;21003;-56
2021/10/18 04:11:38;;;;;;;3.30;2.52;;;;;;;22.81;53.50;101353.06;1725016;81;21296;-57
2021/10/18 04:14:01;;;;;;;3.50;2.90;;;;;;;22.82;53.50;101348.59;1719956;82;21110;-55
2021/10/18 04:16:27;;;;;;;4.53;2.70;;;;;;;22.83;53.49;101348.03;1730403;81;21063;-55
2021/10/18 04:18:53;;;;;;;3.47;2.75;;;;;;;22.82;53.51;101341.66;1723167;81;20931;-56
2021/10/18 04:21:19;;;;;;;3.77;2.92;;;;;;;22.84;53.52;101349.64;1721697;81;21011;-55
2021/10/18 04:23:45;;;;;;;3.98;2.65;;;;;;;22.85;53.52;101352.67;1724212;81;21155;-56
2021/10/18 04:26:11;;;;;;;3.37;2.65;;;;;;;22.85;53.54;101347.12;1725307;81;21455;-55
2021/10/18 04:28:37;;;;;;;3.42;2.37;;;;;;;22.85;53.54;101345.73;1727944;81;21167;-56
2021/10/18 04:31:03;;;;;;;3.33;2.70;;;;;;;22.86;53.55;101350.98;1724386;81;21132;-56
2021/10/18 04:33:29;;;;;;;3.77;2.58;;;;;;;22.87;53.54;101358.73;1721822;81;20964;-54
2021/10/18 04:35:55;;;;;;;3.85;2.70;;;;;;;22.87;53.53;101355.96;1722969;80;21988;-55
2021/10/18 04:38:21;;;;;;;3.35;2.55;;;;;;;22.88;53.54;101357.58;1714964;82;21019;-55
2021/10/18 04:40:48;;;;;;;3.40;2.70;;;;;;;22.87;53.56;101356.78;1721166;81;21527;-55
2021/10/18 04:43:14;;;;;;;3.45;2.30;;;;;;;22.87;53.55;101351.80;1709682;81;21453;-56
2021/10/18 04:45:40;;;;;;;3.47;2.90;;;;;;;22.88;53.56;101358.39;1728731;81;20921;-55
2021/10/18 04:48:06;;;;;;;3.45;2.58;;;;;;;22.87;53.57;101360.95;1726833;81;22665;-56
2021/10/18 04:50:32;;;;;;;5.08;2.75;;;;;;;22.87;53.58;101353.19;1708820;81;20884;-52
2021/10/18 04:52:58;;;;;;;3.92;2.75;;;;;;;22.88;53.58;101357.58;1720891;81;21083;-56
2021/10/18 04:55:24;;;;;;;4.72;2.87;;;;;;;22.87;53.58;101356.78;1722130;81;20991;-53
2021/10/18 04:57:53;;;;;;;7.42;3.00;;;;;;;22.87;53.58;101354.58;1735532;81;21616;-55
2021/10/18 05:00:21;;;;;;;6.15;2.70;;;;;;;22.88;53.63;101360.35;1725575;81;21983;-55
2021/10/18 05:02:47;;;;;;;4.55;2.50;;;;;;;22.89;53.64;101360.61;1715149;82;21139;-56
2021/10/18 05:05:13;;;;;;;9.38;3.70;;;;;;;22.88;53.63;101363.95;1724307;81;21530;-55
2021/10/18 05:07:39;;;;;;;6.53;3.27;;;;;;;22.88;53.64;101361.73;1721118;81;20960;-55
2021/10/18 05:10:13;;;;;;;7.58;3.27;;;;;;;22.88;53.68;101374.22;1720120;81;21053;-56
2021/10/18 05:12:40;;;;;;;7.20;3.10;;;;;;;22.88;53.70;101375.05;1717113;81;21947;-56
2021/10/18 05:15:07;;;;;;;10.93;3.83;;;;;;;22.88;53.71;101375.61;1696126;81;21112;-55
2021/10/18 05:17:35;;;;;;;11.22;3.92;;;;;;;22.90;53.76;101377.52;1727341;80;21059;-57
2021/10/18 05:20:01;;;;;;;8.80;3.90;;;;;;;22.90;53.79;101384.45;1718739;81;21051;-55
2021/10/18 05:22:27;;;;;;;11.08;4.83;;;;;;;22.91;53.79;101384.14;1724280;81;21051;-58
2021/10/18 05:24:53;;;;;;;23.32;6.87;;;;;;;22.91;53.80;101390.25;1716132;81;21276;-56
2021/10/18 05:27:19;;;;;;;7.78;4.30;;;;;;;22.91;53.85;101391.64;1720926;81;21499;-57
2021/10/18 05:29:46;;;;;;;8.53;4.25;;;;;;;22.91;53.89;101388.87;1714630;81;21093;-56
2021/10/18 05:32:12;;;;;;;5.37;3.75;;;;;;;22.90;53.90;101387.22;1715520;81;21721;-56
2021/10/18 05:34:38;;;;;;;5.08;3.67;;;;;;;22.90;53.93;101394.98;1728512;81;21156;-56
2021/10/18 05:37:04;;;;;;;5.45;3.72;;;;;;;22.90;53.97;101396.94;1719206;81;21340;-56
2021/10/18 05:39:30;;;;;;;10.00;4.33;;;;;;;22.91;53.99;101405.52;1718361;81;21163;-57
2021/10/18 05:41:56;;;;;;;17.90;5.40;;;;;;;22.90;54.02;101397.75;1722535;81;21016;-57
2021/10/18 05:44:22;;;;;;;23.57;7.65;;;;;;;22.91;54.03;101404.13;1718619;81;21099;-57
2021/10/18 05:46:48;;;;;;;15.10;5.53;;;;;;;22.91;54.08;101407.73;1715734;81;20933;-54
2021/10/18 05:49:14;;;;;;;9.33;4.40;;;;;;;22.94;54.08;101415.97;1720738;81;21373;-57
2021/10/18 05:51:40;;;;;;;8.08;3.50;;;;;;;22.94;54.09;101410.42;1713980;81;21724;-56
2021/10/18 05:54:07;;;;;;;5.35;3.42;;;;;;;22.92;54.12;101412.11;1722802;81;21510;-56
2021/10/18 05:56:34;;;;;;;5.05;3.72;;;;;;;22.94;54.14;101422.34;1732073;81;21084;-56
2021/10/18 05:59:00;;;;;;;5.62;3.33;;;;;;;22.95;54.15;101417.05;1722369;81;21092;-56
2021/10/18 06:01:26;;;;;;;5.53;3.83;;;;;;;22.94;54.17;101415.41;1713863;82;21384;-56
2021/10/18 06:03:52;;;;;;;6.10;3.60;;;;;;;22.95;54.19;101419.83;1719172;81;20928;-55
2021/10/18 06:06:20;;;;;;;5.75;3.58;;;;;;;22.96;54.20;101419.23;1730401;81;21074;-56
2021/10/18 06:08:48;;;;;;;5.03;3.52;;;;;;;22.96;54.19;101421.44;1685791;83;21130;-56
2021/10/18 06:11:16;;;;;;;5.28;3.55;;;;;;;22.96;54.21;101421.44;1735803;81;21013;-56
2021/10/18 06:13:43;;;;;;;5.83;3.70;;;;;;;22.96;54.21;101428.38;1705690;81;21364;-56
2021/10/18 06:16:09;;;;;;;4.78;3.25;;;;;;;22.97;54.21;101425.03;1750147;80;21127;-56
2021/10/18 06:18:35;;;;;;;5.67;3.60;;;;;;;22.96;54.21;101431.15;1714102;82;21094;-56
2021/10/18 06:21:01;;;;;;;5.22;3.17;;;;;;;22.96;54.21;101431.15;1746424;80;21116;-56
2021/10/18 06:23:27;;;;;;;4.17;2.95;;;;;;;22.97;54.22;101434.75;1744849;80;21022;-56
2021/10/18 06:25:54;;;;;;;5.90;3.60;;;;;;;22.97;54.24;101436.95;1706235;82;21313;-56
2021/10/18 06:28:20;;;;;;;7.22;3.60;;;;;;;22.97;54.22;101431.97;1711690;81;21782;-56
2021/10/18 06:30:46;;;;;;;6.10;3.22;;;;;;;22.96;54.23;101435.31;1717060;82;21077;-56
2021/10/18 06:33:12;;;;;;;6.03;3.60;;;;;;;22.96;54.25;101435.31;1718418;81;21563;-56
2021/10/18 06:35:38;;;;;;;8.08;3.30;;;;;;;22.98;54.25;101443.33;1716298;81;21630;-56
2021/10/18 06:38:16;;;;;;;5.35;3.37;;;;;;;22.97;54.25;101442.50;1709929;81;21254;-56
2021/10/18 06:40:42;;;;;;;6.80;3.75;;;;;;;22.97;54.25;101445.28;1701454;81;21112;-56
2021/10/18 06:43:09;;;;;;;5.55;3.60;;;;;;;22.98;54.24;101446.11;1707900;83;21590;-57
2021/10/18 06:45:35;;;;;;;5.87;3.90;;;;;;;22.98;54.22;101452.48;1707044;82;21086;-56
2021/10/18 06:48:01;;;;;;;5.87;3.70;;;;;;;22.98;54.25;101447.49;1714390;82;21127;-56
2021/10/18 06:50:29;;;;;;;6.45;3.90;;;;;;;22.98;54.25;101453.05;1712073;82;21031;-56
2021/10/18 06:52:55;;;;;;;5.55;3.47;;;;;;;22.98;54.22;101449.70;1753522;80;21283;-56
2021/10/18 06:55:23;;;;;;;5.83;3.52;;;;;;;22.97;54.21;101445.28;1713881;82;21102;-56
2021/10/18 06:57:49;;;;;;;5.05;3.42;;;;;;;22.97;54.24;101444.46;1700399;82;21127;-56
2021/10/18 07:00:16;;;;;;;5.92;3.75;;;;;;;22.97;54.20;101448.05;1713849;81;21628;-56
2021/10/18 07:02:42;;;;;;;5.60;3.80;;;;;;;22.98;54.21;101454.43;1710427;82;22051;-56
2021/10/18 07:05:08;;;;;;;6.72;3.70;;;;;;;22.97;54.20;101456.38;1719909;81;21169;-57
2021/10/18 07:07:37;;;;;;;6.60;3.47;;;;;;;22.97;54.18;101453.61;1709012;81;21092;-56
2021/10/18 07:10:04;;;;;;;6.58;3.62;;;;;;;22.97;54.18;101461.94;1718443;81;21000;-56
2021/10/18 07:12:32;;;;;;;6.97;3.47;;;;;;;22.96;54.16;101458.90;1710990;82;21045;-55
2021/10/18 07:14:58;;;;;;;7.05;3.90;;;;;;;22.97;54.15;101459.72;1711682;81;21662;-56
2021/10/18 07:17:24;;;;;;;6.50;3.67;;;;;;;22.96;54.13;101460.29;1730821;81;21119;-56
2021/10/18 07:19:50;;;;;;;5.28;3.15;;;;;;;22.96;54.14;101465.84;1723240;81;20990;-56
2021/10/18 07:22:18;;;;;;;6.75;3.62;;;;;;;22.97;54.12;101459.72;1707790;82;21121;-56
2021/10/18 07:24:44;;;;;;;5.83;3.85;;;;;;;22.97;54.09;101462.50;1724826;81;21087;-56
2021/10/18 07:27:11;;;;;;;6.08;3.65;;;;;;;22.97;54.08;101465.27;1721052;81;21974;-55
2021/10/18 07:29:38;;;;;;;5.85;2.98;;;;;;;22.98;54.08;101465.53;1717915;82;21043;-56
2021/10/18 07:32:06;;;;;;;5.45;3.10;;;;;;;22.97;54.05;101467.48;1728179;81;21031;-56
2021/10/18 07:34:32;;;;;;;5.65;3.58;;;;;;;22.97;54.02;101469.44;1727160;81;21139;-55
2021/10/18 07:36:58;;;;;;;5.58;3.42;;;;;;;22.97;54.01;101471.64;1718219;81;21013;-56
2021/10/18 07:39:26;;;;;;;4.20;3.35;;;;;;;22.98;53.99;101487.73;1722996;81;21341;-55
2021/10/18 07:41:58;;;;;;;5.50;3.20;;;;;;;22.98;53.98;101476.63;1711408;82;21126;-55
2021/10/18 07:44:28;;;;;;;5.75;3.30;;;;;;;22.98;53.96;101489.12;1724829;81;21750;-56
2021/10/18 07:46:52;;;;;;;5.37;3.70;;;;;;;22.97;53.95;101488.86;1707801;81;21522;-57
2021/10/18 07:49:18;;;;;;;4.58;3.05;;;;;;;22.96;53.91;101488.03;1726737;81;21589;-56
2021/10/18 07:51:44;;;;;;;4.30;3.08;;;;;;;22.98;53.88;101498.83;1717435;81;21222;-56
2021/10/18 07:54:12;;;;;;;4.97;3.60;;;;;;;22.98;53.86;101501.61;1718927;81;21010;-56
2021/10/18 07:56:38;;;;;;;6.08;4.17;;;;;;;22.97;53.87;101506.89;1722832;81;21145;-56
2021/10/18 07:59:04;;;;;;;5.17;3.50;;;;;;;22.98;53.84;101508.55;1718566;81;21664;-56
2021/10/18 08:01:30;;;;;;;4.72;3.60;;;;;;;22.97;53.81;101502.73;1720907;81;21098;-56
2021/10/18 08:03:57;;;;;;;4.28;3.02;;;;;;;22.97;53.80;101499.39;1735347;81;21149;-55
2021/10/18 08:06:23;;;;;;;5.25;3.17;;;;;;;22.97;53.80;101507.72;1710928;81;21588;-56
2021/10/18 08:08:54;;;;;;;4.45;3.42;;;;;;;22.97;53.78;101504.13;1720690;81;20988;-55
2021/10/18 08:11:19;;;;;;;;;;;;;;;22.96;53.75;101499.14;1720703;81;21487;-56
2021/10/18 08:13:45;;;;;;;4.75;3.02;;;;;;;22.96;53.74;101503.86;1716416;81;20182;-56
2021/10/18 08:16:12;;;;;;;5.10;3.25;;;;;;;22.95;53.74;101498.09;1719295;81;21299;-56
2021/10/18 08:18:38;;;;;;;5.95;3.52;;;;;;;22.95;53.72;101491.97;1716750;81;21467;-55
2021/10/18 08:21:09;;;;;;;3.77;3.05;;;;;;;22.94;53.71;101495.88;1723928;81;21023;-56
2021/10/18 08:23:35;;;;;;;4.75;3.17;;;;;;;22.95;53.69;101505.84;1723296;81;21085;-56
2021/10/18 08:26:02;;;;;;;4.17;3.02;;;;;;;22.94;53.69;101494.48;1717354;82;21072;-56
2021/10/18 08:28:28;;;;;;;5.00;3.77;;;;;;;22.95;53.65;101492.53;1716100;81;21496;-56
2021/10/18 08:30:55;;;;;;;4.50;3.30;;;;;;;22.95;53.65;101493.92;1718914;81;21491;-57
2021/10/18 08:33:21;;;;;;;3.80;3.20;;;;;;;22.95;53.65;101497.52;1729136;81;21197;-56
2021/10/18 08:35:48;;;;;;;4.97;3.25;;;;;;;22.95;53.61;101493.92;1712340;81;21624;-56
2021/10/18 08:41:15;;;;;;;4.67;3.08;;;;;;;22.96;53.58;101498.31;1717163;82;21154;-56
2021/10/18 08:46:07;;;;;;;5.30;3.15;;;;;;;22.96;53.53;101496.92;1722930;81;21039;-56
2021/10/18 08:48:33;;;;;;;4.47;3.15;;;;;;;22.96;53.53;101492.77;1719830;81;21641;-56
2021/10/18 08:50:59;;;;;;;4.33;3.37;;;;;;;22.97;53.50;101499.95;1721076;81;21086;-57
2021/10/18 08:53:25;;;;;;;4.42;3.30;;;;;;;22.97;53.49;101503.56;1719208;81;21657;-56
2021/10/18 08:55:51;;;;;;;4.72;3.20;;;;;;;22.97;53.47;101498.01;1716738;82;21129;-56
2021/10/18 08:58:17;;;;;;;4.33;3.27;;;;;;;22.99;53.46;101500.48;1714520;82;21056;-56
2021/10/18 09:00:51;;;;;;;3.98;2.85;;;;;;;22.98;53.42;101500.22;1716016;81;21092;-55
2021/10/18 09:03:24;;;;;;;4.55;3.22;;;;;;;22.99;53.41;101494.36;1714823;81;21102;-56
2021/10/18 09:06:10;;;;;;;4.83;3.50;;;;;;;22.99;53.39;101499.09;1716519;81;21044;-55
2021/10/18 09:08:43;;;;;;;5.22;2.98;;;;;;;22.98;53.36;101491.33;1722487;81;21551;-56
2021/10/18 09:11:14;;;;;;;4.10;3.10;;;;;;;22.99;53.35;101490.20;1722885;81;21081;-56
2021/10/18 09:13:54;;;;;;;6.20;3.80;;;;;;;23.00;53.32;101489.63;1727201;81;21146;-56
2021/10/18 09:16:30;;;;;;;4.33;3.17;;;;;;;23.00;53.30;101493.20;1728387;81;21109;-55
2021/10/18 09:19:15;;;;;;;4.10;2.77;;;;;;;22.99;53.29;101492.16;1725718;81;21302;-55
2021/10/18 09:21:48;;;;;;;4.65;3.37;;;;;;;22.98;53.25;101493.28;1716745;81;21249;-55
2021/10/18 09:24:17;;;;;;;5.10;3.27;;;;;;;22.98;53.25;101488.55;1723362;81;21022;-56
2021/10/18 09:26:45;;;;;;;4.40;3.42;;;;;;;22.99;53.23;101490.20;1722749;81;21180;-55
2021/10/18 09:29:15;;;;;;;4.65;3.40;;;;;;;23.00;53.21;101491.02;1721163;81;20992;-56
2021/10/18 09:31:44;;;;;;;4.47;2.90;;;;;;;22.99;53.22;101483.83;1727807;81;21149;-56
2021/10/18 09:34:14;;;;;;;4.87;3.35;;;;;;;22.99;53.18;101479.66;1723373;81;21114;-57
2021/10/18 09:36:43;;;;;;;4.37;3.58;;;;;;;22.99;53.18;101476.33;1704727;82;21110;-55
2021/10/18 09:39:26;;;;;;;4.65;3.12;;;;;;;22.97;53.17;101474.42;1722076;81;21025;-57
2021/10/18 09:42:03;;;;;;;4.33;3.22;;;;;;;22.99;53.17;101467.17;1726921;81;21103;-56
2021/10/18 10:56:29;;;;;;;4.53;3.23;;;;;;;22.84;53.05;101419.00;1745361;80;21563;-56
2021/10/18 10:59:21;;;;;;;4.28;3.05;;;;;;;22.85;53.03;101414.53;1743918;80;21101;-54
2021/10/18 11:01:55;;;;;;;3.77;2.90;;;;;;;22.86;53.00;101423.68;1741359;80;21072;-54
2021/10/18 11:04:36;;;;;;;5.28;3.37;;;;;;;22.87;53.00;101410.06;1728763;80;21058;-55
2021/10/18 11:07:18;;;;;;;4.15;3.33;;;;;;;22.87;52.97;101412.84;1746462;80;21109;-55
2021/10/18 11:09:49;;;;;;;4.87;2.80;;;;;;;22.87;52.97;101406.73;1744844;80;21120;-54
2021/10/18 11:12:32;;;;;;;4.20;2.83;;;;;;;22.90;52.94;101405.26;1716552;82;21142;-53
2021/10/18 11:15:02;;;;;;;4.10;2.70;;;;;;;22.89;52.92;101400.27;1711970;81;21093;-54
2021/10/18 11:17:31;;;;;;;4.08;3.05;;;;;;;22.88;52.90;101393.64;1714923;82;21100;-55
2021/10/18 11:20:01;;;;;;;4.97;3.08;;;;;;;22.91;52.86;101400.78;1722679;81;21009;-54
2021/10/18 11:22:42;;;;;;;4.97;3.25;;;;;;;22.93;52.86;101401.84;1728308;80;21333;-55
2021/10/18 11:25:19;;;;;;;4.10;3.20;;;;;;;22.93;52.82;101398.50;1733530;81;21034;-55
2021/10/18 11:27:51;;;;;;;4.15;2.98;;;;;;;22.94;52.79;101395.16;1727510;81;21170;-56
2021/10/18 11:30:18;;;;;;;4.62;3.22;;;;;;;22.94;52.79;101393.20;1735557;80;21058;-55
2021/10/18 11:32:57;;;;;;;4.28;3.10;;;;;;;22.94;52.74;101397.37;1731330;81;21530;-56
2021/10/18 11:35:24;;;;;;;4.10;3.33;;;;;;;22.95;52.71;101391.25;1722670;81;21825;-54
2021/10/18 11:38:06;;;;;;;4.35;3.02;;;;;;;22.95;52.72;101392.08;1719823;81;21110;-55
2021/10/18 11:40:48;;;;;;;4.45;3.15;;;;;;;22.96;52.70;101388.70;1715513;82;21071;-55
2021/10/18 11:43:19;;;;;;;5.15;3.27;;;;;;;22.94;52.67;101394.59;1717097;82;21224;-54
2021/10/18 11:45:49;;;;;;;5.20;3.15;;;;;;;22.94;52.67;101391.00;1717364;82;21567;-54
2021/10/18 11:48:17;;;;;;;4.28;2.87;;;;;;;22.94;52.66;101386.83;1723041;81;21055;-54
2021/10/18 11:50:45;;;;;;;4.37;3.30;;;;;;;22.93;52.67;101387.40;1724392;81;21122;-54
2021/10/18 11:53:17;;;;;;;3.95;2.80;;;;;;;22.93;52.66;101386.02;1718255;82;21029;-55
2021/10/18 11:55:49;;;;;;;3.72;3.05;;;;;;;22.93;52.65;101381.84;1718676;81;21185;-54
2021/10/18 11:58:21;;;;;;;4.28;3.12;;;;;;;22.92;52.64;101378.81;1712744;81;21046;-54
2021/10/18 12:00:48;;;;;;;4.20;3.25;;;;;;;22.92;52.64;101383.55;1726011;81;22159;-54
2021/10/18 12:03:17;;;;;;;4.28;2.87;;;;;;;22.92;52.62;101379.37;1717723;81;21705;-55
2021/10/18 12:05:54;;;;;;;4.07;2.93;;;;;;;22.92;52.61;101375.22;1717311;81;21178;-55
2021/10/18 12:08:24;;;;;;;3.58;2.77;;;;;;;22.92;52.62;101376.05;1702374;81;21039;-54
2021/10/18 12:10:50;;;;;;;4.77;3.80;;;;;;;22.92;52.59;101370.48;1733290;80;21081;-55
2021/10/18 12:13:28;;;;;;;4.20;2.77;;;;;;;22.93;52.58;101374.09;1715081;82;22057;-55
2021/10/18 12:16:11;;;;;;;4.15;3.10;;;;;;;22.94;52.57;101379.89;1707206;82;21083;-53
2021/10/18 12:18:57;;;;;;;5.22;3.00;;;;;;;22.92;52.57;101373.83;1706682;82;21123;-56
2021/10/18 12:21:35;;;;;;;5.05;3.45;;;;;;;22.92;52.54;101369.67;1715997;82;21134;-55
2021/10/18 12:24:22;;;;;;;4.70;3.20;;;;;;;22.91;52.55;101373.61;1746839;81;21722;-54
2021/10/18 12:26:54;;;;;;;6.25;3.27;;;;;;;22.90;52.55;101369.19;1709721;81;21072;-55
2021/10/18 12:29:21;;;;;;;4.42;2.92;;;;;;;22.89;52.57;101368.93;1697007;81;21068;-55
2021/10/18 12:31:49;;;;;;;3.80;3.05;;;;;;;22.89;52.58;101374.48;1711178;81;21140;-48
2021/10/18 12:34:23;;;;;;;3.87;2.90;;;;;;;22.88;52.58;101368.11;1708369;81;21044;-52
2021/10/18 12:37:11;;;;;;;6.33;3.58;;;;;;;22.88;52.62;101377.82;1730998;80;21075;-56
2021/10/18 12:39:48;;;;;;;4.15;3.08;;;;;;;22.88;52.62;101374.22;1731885;80;21633;-55
2021/10/18 12:42:31;;;;;;;6.97;2.83;;;;;;;22.87;52.63;101379.55;1731588;80;21107;-56
2021/10/18 12:45:11;;;;;;;4.47;3.00;;;;;;;22.85;52.65;101377.08;1722938;81;21070;-55